Airfield :
LOGIN :

Register | Disclaimer

   EN    FR    IT 

 










Legend :    VFR   Marginal VFR   IFR   Intensive IFR   Very Intensive IFR
Visi :
Ceiling :
>= 8 km
>= 3000ft
5 to 8 km
1000 to 3000 ft
1500m to 5 km
500 to 1000 ft
800 to 1500m
200 to 500 ft
< 800m
< 200 ft
Symbols :   Thunderstorms  Fog  Heavy snow  Heavy precipitations  Wind > 20 kt
SIGMETs :     Misc.  Thunderstorms  Icing  Turbulence  Mountain Waves  Volcanic Ashes







- Airport Elevation : 59 ft
- IATA code : TSF


LIPH - Treviso

CURRENT METAR :
  • 190820Z VRB01KT 0100 R07/0250N FG VV001 00/00 Q1023

EXPIRED METARs :
  • 190750Z VRB02KT 0100 R07/0225N FZFG VV001 M00/M00 Q1023
  • 190720Z 14003KT 120V180 0100 R07/0225N FZFG VV001 M00/M00 Q1023
  • 190650Z 12003KT 0100 R07/0200N FZFG VV001 M00/M00 Q1022
  • 190620Z 11003KT 080V140 0100 R07/0225N FG VV001 00/00 Q1022
  • 190550Z AUTO VRB02KT 0050 R07/0250N FG VV001 00/00 Q1022

TAF TAF LIPH
Valid from the 19 at 06:00 until the 20 at 06:00 UTC


190500Z 1906/2006 VRB05KT 0100 FG OVC001
BECMG 1912/1915 2000 BR SCT015
BECMG 1918/1920 0400 FG
No reported NOTAMs for that airfield.



MET'MAP, your aeronautical weather chart ! - Copyright ORBIFLY December 2007 - Disclaimer

ORBIFLY MET'MAP TEAM :

Programming & Development : Alexandra Zaïnal
Concept & Development : Baudouin d'Aumeries
Co-Development & Prog : Marc-Olivier Méhu
Technical & hardware support : Manuel Goepfert

Contact : metmap@orbifly.com




SOURCES & CREDITS :

   NOAA